Time;durP1;ratioP1;P1;durP2;ratioP2;P2;SDS_P1;SDS_P2;PMS_P1;PMS_P2;Temp;Humidity;BMP_temperature;BMP_pressure;BME280_temperature;BME280_humidity;BME280_pressure;Samples;Min_cycle;Max_cycle;Signal;HPM_P1;HPM_P2
2022/12/12 00:00:51;;;;;;;24.60;12.30;;;;;;;-2.24;82.95;98474.35;210772;1293;139577;-64
2022/12/12 00:06:03;;;;;;;25.80;12.50;;;;;;;-2.23;83.10;98476.52;210586;1292;247447;-63
2022/12/12 00:11:08;;;;;;;20.00;11.50;;;;;;;-2.22;83.00;98477.33;210393;1292;140257;-64
2022/12/12 00:16:13;;;;;;;22.40;11.50;;;;;;;-2.15;82.94;98472.95;209593;1281;153673;-64
2022/12/12 00:21:21;;;;;;;18.10;10.90;;;;;;;-2.09;82.93;98466.46;209038;1292;140874;-61
2022/12/12 00:26:28;;;;;;;16.70;9.70;;;;;;;-2.10;83.05;98466.58;210353;1292;141741;-60
2022/12/12 00:31:33;;;;;;;14.90;9.90;;;;;;;-2.14;83.21;98468.58;210672;1291;245290;-62
2022/12/12 00:36:39;;;;;;;20.20;10.70;;;;;;;-2.13;83.12;98462.48;210616;1292;140045;-62
2022/12/12 00:41:43;;;;;;;21.40;11.70;;;;;;;-2.07;82.95;98463.11;210378;1298;141282;-62
2022/12/12 00:46:47;;;;;;;22.90;11.20;;;;;;;-2.02;83.23;98461.98;210795;1290;140063;-61
2022/12/12 00:51:52;;;;;;;21.10;12.10;;;;;;;-2.04;83.14;98462.05;209964;1292;141686;-60
2022/12/12 00:56:57;;;;;;;17.30;10.10;;;;;;;-2.06;83.37;98456.14;210792;1292;140570;-61
2022/12/12 01:02:00;;;;;;;18.70;10.20;;;;;;;-2.07;83.13;98454.68;209582;1300;141464;-64
2022/12/12 01:07:05;;;;;;;25.40;13.50;;;;;;;-2.02;83.24;98456.90;210586;1292;142303;-64
2022/12/12 01:12:11;;;;;;;15.30;9.50;;;;;;;-2.00;83.54;98455.84;210636;1286;140001;-64
2022/12/12 01:17:16;;;;;;;18.90;12.50;;;;;;;-2.01;83.88;98453.81;210275;1292;140163;-64
2022/12/12 01:22:22;;;;;;;22.80;12.30;;;;;;;-2.01;83.79;98454.34;210546;1300;140104;-64
2022/12/12 01:27:28;;;;;;;22.80;11.70;;;;;;;-1.97;83.81;98451.33;210451;1294;139971;-63
2022/12/12 01:32:32;;;;;;;23.60;13.00;;;;;;;-1.87;83.47;98449.35;210606;1292;141804;-63
2022/12/12 01:37:39;;;;;;;18.70;12.70;;;;;;;-1.81;83.73;98443.75;210578;1300;142431;-63
2022/12/12 01:42:44;;;;;;;24.30;13.70;;;;;;;-1.80;83.80;98444.96;210660;1290;140386;-62
2022/12/12 01:47:48;;;;;;;26.00;15.40;;;;;;;-1.80;83.78;98443.92;210656;1292;140137;-63
2022/12/12 01:52:55;;;;;;;19.80;11.90;;;;;;;-1.81;83.63;98443.88;210622;1295;140651;-63
2022/12/12 01:58:00;;;;;;;20.20;12.20;;;;;;;-1.76;83.67;98444.29;210592;1292;140088;-62
2022/12/12 02:03:04;;;;;;;18.20;12.70;;;;;;;-1.71;83.71;98449.04;210537;1292;140611;-62
2022/12/12 02:08:11;;;;;;;23.70;14.00;;;;;;;-1.70;83.90;98450.34;210507;1295;140402;-63
2022/12/12 02:13:22;;;;;;;18.00;12.60;;;;;;;-1.67;84.21;98444.33;210337;1291;140428;-62
2022/12/12 02:18:30;;;;;;;21.60;11.50;;;;;;;-1.68;83.99;98442.11;210533;1295;141680;-63
2022/12/12 02:24:00;;;;;;;21.30;13.20;;;;;;;-1.63;83.79;98447.75;209364;1291;139949;-62
2022/12/12 02:29:33;;;;;;;20.90;11.80;;;;;;;-1.63;83.71;98441.39;210699;1292;139583;-62
2022/12/12 02:35:05;;;;;;;26.00;12.90;;;;;;;-1.63;84.20;98447.46;210403;1295;141063;-62
2022/12/12 02:40:28;;;;;;;20.50;12.50;;;;;;;-1.65;84.01;98450.27;210530;1298;141096;-62
2022/12/12 02:45:41;;;;;;;23.40;13.80;;;;;;;-1.64;83.83;98445.29;210533;1295;140709;-62
2022/12/12 02:50:49;;;;;;;100.20;54.70;;;;;;;-1.55;83.88;98450.44;210519;1298;142049;-63
2022/12/12 02:56:39;;;;;;;26.90;16.10;;;;;;;-1.52;84.20;98441.39;210416;1288;140417;-63
2022/12/12 03:02:03;;;;;;;22.20;13.50;;;;;;;-1.53;84.16;98439.73;210035;1299;142542;-63
2022/12/12 03:07:48;;;;;;;22.80;11.70;;;;;;;-1.54;83.94;98436.65;210189;1295;140620;-64
2022/12/12 03:13:04;;;;;;;20.00;14.10;;;;;;;-1.51;83.93;98437.53;209968;1300;151154;-64
2022/12/12 03:18:21;;;;;;;27.20;16.00;;;;;;;-1.47;84.17;98437.80;210660;1288;139933;-64
2022/12/12 03:23:40;;;;;;;20.10;12.00;;;;;;;-1.50;83.94;98437.07;210414;1294;139543;-64
2022/12/12 03:29:08;;;;;;;21.70;15.90;;;;;;;-1.47;84.04;98438.78;210360;1293;141127;-61
2022/12/12 03:34:24;;;;;;;20.90;12.60;;;;;;;-1.48;84.02;98433.98;210453;1298;140730;-65
2022/12/12 03:39:35;;;;;;;17.10;11.50;;;;;;;-1.51;84.37;98431.14;210459;1298;141099;-63
2022/12/12 03:45:10;;;;;;;20.40;10.90;;;;;;;-1.54;84.22;98435.13;210419;1295;140038;-64
2022/12/12 03:50:19;;;;;;;21.40;11.90;;;;;;;-1.49;84.23;98433.85;210483;1295;142190;-63
2022/12/12 03:55:40;;;;;;;16.10;10.00;;;;;;;-1.45;84.30;98435.21;210514;1295;236451;-64
2022/12/12 04:00:51;;;;;;;25.30;16.20;;;;;;;-1.41;84.41;98432.02;210136;1294;139529;-64
2022/12/12 04:17:07;;;;;;;15.30;10.50;;;;;;;-1.38;84.36;98416.45;210438;1287;141143;-64
2022/12/12 04:27:49;;;;;;;14.20;6.20;;;;;;;-1.44;84.70;98422.48;210599;1295;247933;-63
2022/12/12 04:33:08;;;;;;;23.20;13.20;;;;;;;-1.49;84.24;98416.73;210435;1296;139502;-63
2022/12/12 04:38:21;;;;;;;18.60;10.90;;;;;;;-1.47;84.18;98421.27;210018;1287;235996;-64
2022/12/12 04:43:36;;;;;;;14.00;10.00;;;;;;;-1.47;84.09;98423.42;210297;1301;141703;-65
2022/12/12 04:48:52;;;;;;;14.40;8.70;;;;;;;-1.52;84.30;98424.19;209765;1294;140470;-67
2022/12/12 04:54:05;;;;;;;19.20;13.50;;;;;;;-1.53;84.26;98428.45;209898;1293;140676;-64
2022/12/12 04:59:12;;;;;;;17.50;11.50;;;;;;;-1.49;84.20;98423.95;210572;1299;140721;-62
2022/12/12 05:04:23;;;;;;;13.90;9.80;;;;;;;-1.50;84.43;98417.92;210365;1294;140067;-63
2022/12/12 05:09:27;;;;;;;15.60;9.90;;;;;;;-1.54;84.37;98419.15;210432;1295;139727;-63
2022/12/12 05:14:31;;;;;;;14.80;10.10;;;;;;;-1.56;84.49;98422.67;210537;1295;141382;-62
2022/12/12 05:19:35;;;;;;;17.00;11.10;;;;;;;-1.49;84.21;98419.61;210466;1298;141650;-62
2022/12/12 05:24:40;;;;;;;15.50;10.60;;;;;;;-1.50;84.03;98416.95;210463;1301;140137;-64
2022/12/12 05:29:44;;;;;;;21.10;10.40;;;;;;;-1.53;84.14;98413.36;210568;1299;140497;-62
2022/12/12 05:34:49;;;;;;;15.10;9.90;;;;;;;-1.48;84.08;98408.66;210243;1290;139923;-68
2022/12/12 05:39:53;;;;;;;13.90;9.60;;;;;;;-1.46;84.29;98410.76;210228;1298;139779;-61
2022/12/12 05:44:57;;;;;;;10.70;6.50;;;;;;;-1.47;84.27;98411.64;210480;1299;139968;-67
2022/12/12 05:50:01;;;;;;;15.60;10.50;;;;;;;-1.51;84.11;98412.00;210631;1290;140752;-63
2022/12/12 05:55:06;;;;;;;15.30;11.10;;;;;;;-1.49;84.15;98412.42;210520;1292;142538;-68
2022/12/12 06:00:10;;;;;;;14.10;10.30;;;;;;;-1.47;84.17;98413.73;210553;1296;139897;-63
2022/12/12 06:05:14;;;;;;;14.20;10.40;;;;;;;-1.51;84.30;98415.55;210493;1296;140279;-62
2022/12/12 06:10:19;;;;;;;17.50;11.10;;;;;;;-1.55;84.04;98413.33;210138;1295;140334;-64
2022/12/12 06:15:23;;;;;;;14.70;10.20;;;;;;;-1.52;84.32;98409.64;210436;1287;141586;-63
2022/12/12 06:20:29;;;;;;;23.00;12.90;;;;;;;-1.51;84.31;98409.23;210440;1295;139906;-62
2022/12/12 06:25:34;;;;;;;15.10;10.70;;;;;;;-1.50;84.48;98410.48;210432;1295;140715;-65
2022/12/12 06:30:39;;;;;;;16.50;10.70;;;;;;;-1.52;84.35;98418.55;208290;1286;141513;-65
2022/12/12 06:35:44;;;;;;;15.80;10.90;;;;;;;-1.51;84.27;98417.91;210279;1298;141194;-65
2022/12/12 06:40:47;;;;;;;17.50;11.50;;;;;;;-1.52;84.65;98419.77;210259;1285;140290;-66
2022/12/12 06:45:59;;;;;;;16.20;13.10;;;;;;;-1.48;84.73;98421.75;210491;1300;140299;-64
2022/12/12 06:51:07;;;;;;;19.80;10.50;;;;;;;-1.50;84.64;98421.63;210621;1298;140317;-63
2022/12/12 06:56:20;;;;;;;16.60;10.30;;;;;;;-1.42;84.84;98419.48;210439;1296;140328;-67
2022/12/12 07:01:24;;;;;;;16.50;10.70;;;;;;;-1.32;84.78;98420.57;210282;1298;143371;-62
2022/12/12 07:06:29;;;;;;;14.50;8.70;;;;;;;-1.29;84.77;98423.89;210621;1295;139766;-67
2022/12/12 07:11:33;;;;;;;17.30;10.90;;;;;;;-1.31;84.66;98425.91;208813;1288;140459;-66
2022/12/12 07:16:38;;;;;;;15.00;10.80;;;;;;;-1.27;84.59;98430.25;210445;1298;141689;-65
2022/12/12 07:21:43;;;;;;;18.50;9.90;;;;;;;-1.19;84.86;98433.23;210359;1300;141382;-65
2022/12/12 07:26:47;;;;;;;49.10;23.00;;;;;;;-1.16;84.93;98431.95;210416;1292;140755;-62
2022/12/12 07:31:51;;;;;;;17.40;10.60;;;;;;;-1.10;85.09;98437.20;210470;1295;139868;-66
2022/12/12 07:36:56;;;;;;;17.20;11.70;;;;;;;-0.99;84.59;98437.06;210324;1295;141569;-67
2022/12/12 07:42:06;;;;;;;13.70;7.40;;;;;;;-0.99;84.75;98437.75;210531;1301;140282;-67
2022/12/12 07:47:10;;;;;;;17.60;9.80;;;;;;;-0.96;84.79;98439.46;210306;1298;142405;-67
2022/12/12 07:52:14;;;;;;;12.30;7.60;;;;;;;-0.83;84.89;98438.99;210615;1298;140224;-69
2022/12/12 07:57:19;;;;;;;12.20;9.40;;;;;;;-0.77;84.56;98441.33;210552;1300;141402;-68
2022/12/12 08:02:24;;;;;;;13.00;10.70;;;;;;;-0.69;85.03;98442.86;210650;1294;140641;-68
2022/12/12 08:07:28;;;;;;;14.40;9.30;;;;;;;-0.61;85.06;98446.30;210333;1295;139997;-63
2022/12/12 08:12:33;;;;;;;14.20;9.50;;;;;;;-0.53;84.69;98448.76;210343;1295;140917;-66
2022/12/12 08:17:37;;;;;;;11.50;8.20;;;;;;;-0.44;84.24;98451.23;210308;1299;139959;-68
2022/12/12 08:22:44;;;;;;;10.50;8.20;;;;;;;-0.38;84.47;98449.80;210199;1295;139795;-68
2022/12/12 08:27:48;;;;;;;14.70;11.00;;;;;;;-0.30;84.28;98457.70;209325;1294;141752;-67
2022/12/12 08:32:53;;;;;;;13.70;8.00;;;;;;;-0.26;84.27;98459.81;209183;1286;141005;-65
2022/12/12 08:37:59;;;;;;;13.00;9.30;;;;;;;-0.15;84.19;98459.73;210726;1298;140059;-67
2022/12/12 08:43:04;;;;;;;12.20;7.60;;;;;;;-0.06;84.03;98464.89;210395;1292;140893;-68
2022/12/12 08:48:12;;;;;;;12.60;9.20;;;;;;;0.01;84.08;98459.45;210462;1292;140773;-68
2022/12/12 08:53:16;;;;;;;10.80;8.10;;;;;;;0.12;83.97;98464.83;210419;1300;140575;-63
2022/12/12 08:58:20;;;;;;;12.10;9.90;;;;;;;0.23;83.58;98471.44;209956;1293;139744;-64
2022/12/12 09:03:24;;;;;;;16.00;9.90;;;;;;;0.32;83.88;98472.52;210404;1292;140250;-67
2022/12/12 09:08:33;;;;;;;13.90;7.90;;;;;;;0.37;83.58;98478.20;209549;1294;151795;-65
2022/12/12 09:13:38;;;;;;;13.00;7.80;;;;;;;0.47;83.20;98474.52;209780;1295;140818;-67
2022/12/12 09:18:42;;;;;;;12.30;8.70;;;;;;;0.57;83.38;98475.90;210386;1288;140039;-69
2022/12/12 09:23:51;;;;;;;15.20;7.70;;;;;;;0.61;83.11;98475.34;210664;1295;140716;-67
2022/12/12 09:28:55;;;;;;;15.80;10.10;;;;;;;0.68;82.80;98473.70;210562;1295;140258;-73
2022/12/12 09:34:00;;;;;;;19.80;9.20;;;;;;;0.76;82.85;98474.20;210437;1295;141773;-65
2022/12/12 09:39:04;;;;;;;19.60;11.20;;;;;;;0.77;82.62;98471.90;210582;1295;140862;-69
2022/12/12 09:44:14;;;;;;;23.30;11.30;;;;;;;0.79;82.54;98471.90;210611;1295;141428;-68
2022/12/12 09:49:45;;;;;;;16.40;11.20;;;;;;;0.87;82.49;98474.29;210397;1295;140197;-66
2022/12/12 09:54:52;;;;;;;21.10;11.00;;;;;;;0.96;82.53;98474.98;210491;1292;140913;-64
2022/12/12 10:00:04;;;;;;;17.40;10.60;;;;;;;1.09;82.49;98475.46;210556;1298;139873;-68
2022/12/12 10:05:15;;;;;;;10.10;7.50;;;;;;;1.17;82.42;98481.30;210601;1298;140038;-68
2022/12/12 10:10:26;;;;;;;15.20;10.40;;;;;;;1.31;82.08;98482.35;210490;1285;141192;-63
2022/12/12 10:15:37;;;;;;;14.40;8.60;;;;;;;1.37;81.91;98480.73;210477;1293;139984;-63
2022/12/12 10:20:52;;;;;;;12.70;8.80;;;;;;;1.38;81.41;98474.98;210604;1292;139522;-69
2022/12/12 10:26:14;;;;;;;13.30;9.30;;;;;;;1.53;81.65;98472.73;210599;1295;139533;-68
2022/12/12 10:31:22;;;;;;;14.00;9.20;;;;;;;1.63;81.38;98477.00;210255;1295;139923;-67
2022/12/12 10:36:34;;;;;;;11.20;8.90;;;;;;;1.71;81.15;98471.04;210630;1292;141981;-68
2022/12/12 10:42:07;;;;;;;14.60;8.70;;;;;;;1.81;80.74;98474.73;210320;1298;140012;-68
2022/12/12 10:47:12;;;;;;;11.60;8.80;;;;;;;1.97;81.16;98472.58;209016;1294;139389;-67
2022/12/12 10:52:20;;;;;;;12.90;9.50;;;;;;;2.05;80.85;98468.81;207213;1286;140023;-71
2022/12/12 10:57:32;;;;;;;35.10;8.60;;;;;;;2.10;80.41;98465.48;207407;1285;140358;-68
2022/12/12 11:02:40;;;;;;;14.60;8.80;;;;;;;2.10;80.32;98470.08;210667;1292;139124;-65
2022/12/12 11:07:48;;;;;;;8.80;6.90;;;;;;;2.07;80.26;98468.92;209471;1295;141270;-67
2022/12/12 11:12:59;;;;;;;;;;;;;;;2.21;80.45;98463.69;210394;1293;139115;-68
2022/12/12 11:18:05;;;;;;;16.60;9.70;;;;;;;2.38;80.14;98469.30;211217;1286;127320;-66
2022/12/12 11:23:22;;;;;;;11.40;8.20;;;;;;;2.43;79.53;98468.24;210430;1289;139735;-66
2022/12/12 11:28:32;;;;;;;11.90;8.60;;;;;;;2.39;79.88;98463.43;210406;1288;139787;-65
2022/12/12 11:33:44;;;;;;;11.70;7.50;;;;;;;2.40;79.44;98466.21;210421;1291;140055;-66
2022/12/12 11:38:54;;;;;;;14.90;9.80;;;;;;;2.40;79.22;98466.30;210734;1294;141407;-66
2022/12/12 11:44:00;;;;;;;8.80;6.90;;;;;;;2.37;79.22;98466.80;210403;1295;138921;-67
2022/12/12 11:49:15;;;;;;;11.90;8.30;;;;;;;2.35;79.30;98467.85;210499;1292;140328;-67
2022/12/12 11:54:29;;;;;;;12.90;7.50;;;;;;;2.34;79.03;98474.66;210512;1300;246150;-67
2022/12/12 12:00:08;;;;;;;9.60;7.10;;;;;;;2.28;78.91;98476.75;210589;1288;139753;-67
2022/12/12 12:05:51;;;;;;;11.10;6.90;;;;;;;2.31;79.15;98474.44;210657;1292;139446;-68
2022/12/12 12:11:16;;;;;;;19.70;9.90;;;;;;;2.30;78.74;98479.78;210616;1294;139801;-72
2022/12/12 12:16:40;;;;;;;8.30;7.20;;;;;;;2.18;78.56;98477.34;210510;1294;141777;-71
2022/12/12 12:22:01;;;;;;;10.00;8.10;;;;;;;2.08;78.89;98481.70;209522;1295;139967;-71
2022/12/12 12:27:34;;;;;;;10.00;8.70;;;;;;;2.07;78.92;98478.59;208182;1285;139633;-68
2022/12/12 12:32:39;;;;;;;9.20;5.80;;;;;;;2.08;78.55;98482.63;210615;1292;140860;-67
2022/12/12 12:38:00;;;;;;;7.10;5.40;;;;;;;1.97;78.27;98480.58;210386;1291;140444;-67
2022/12/12 12:43:14;;;;;;;8.50;6.40;;;;;;;1.85;78.56;98481.08;210550;1300;139681;-68
2022/12/12 12:48:24;;;;;;;8.00;5.20;;;;;;;1.84;78.41;98484.80;209508;1284;142295;-65
2022/12/12 12:53:45;;;;;;;9.70;6.10;;;;;;;1.84;78.45;98487.14;208587;1292;139820;-65
2022/12/12 12:58:53;;;;;;;11.70;6.50;;;;;;;1.78;78.68;98493.85;210590;1292;139656;-65
2022/12/12 13:04:01;;;;;;;11.30;9.40;;;;;;;1.69;78.45;98494.05;210508;1285;140297;-65
2022/12/12 13:09:34;;;;;;;14.00;7.60;;;;;;;1.67;78.65;98494.85;209451;1286;141898;-67
2022/12/12 13:14:47;;;;;;;11.90;7.60;;;;;;;1.66;78.55;98495.62;210511;1290;140397;-69
2022/12/12 13:19:55;;;;;;;10.80;9.60;;;;;;;1.61;78.68;98509.13;208081;1295;140799;-66
2022/12/12 13:29:29;;;;;;;8.40;5.80;;;;;;;1.43;78.80;98513.91;206665;1326;657528;-69
2022/12/12 13:34:40;;;;;;;8.30;5.90;;;;;;;1.36;78.66;98524.23;208470;1306;139283;-66
2022/12/12 13:39:45;;;;;;;11.40;6.90;;;;;;;1.20;78.68;98528.49;208241;1308;482384;-68
2022/12/12 13:44:49;;;;;;;27.50;15.50;;;;;;;1.10;78.98;98533.31;208806;1304;138684;-67
2022/12/12 13:50:09;;;;;;;16.60;8.20;;;;;;;1.07;78.98;98533.44;208573;1294;139964;-64
2022/12/12 13:55:20;;;;;;;15.10;9.10;;;;;;;1.07;79.26;98538.28;208769;1311;222180;-67
2022/12/12 14:00:31;;;;;;;12.00;7.80;;;;;;;1.02;79.35;98543.21;208775;1305;140658;-67
2022/12/12 14:05:43;;;;;;;9.80;6.90;;;;;;;0.92;79.58;98544.63;208794;1307;148592;-65
2022/12/12 14:11:00;;;;;;;13.70;8.90;;;;;;;0.86;79.74;98550.44;208761;1311;139067;-69
2022/12/12 14:16:07;;;;;;;13.30;8.00;;;;;;;0.84;79.27;98552.30;209902;1298;139957;-67
2022/12/12 14:21:16;;;;;;;13.50;9.20;;;;;;;0.80;79.83;98555.73;209920;1306;139853;-66
2022/12/12 14:26:26;;;;;;;12.50;8.50;;;;;;;0.74;79.97;98553.90;210065;1295;139487;-69
2022/12/12 14:31:36;;;;;;;11.70;8.70;;;;;;;0.77;79.64;98557.73;209911;1304;140588;-67
2022/12/12 14:37:00;;;;;;;9.40;8.40;;;;;;;0.78;80.14;98559.75;209956;1304;139191;-68
2022/12/12 14:42:06;;;;;;;11.20;7.40;;;;;;;0.75;80.22;98562.65;208049;1296;138512;-66
2022/12/12 14:47:16;;;;;;;9.40;5.70;;;;;;;0.68;80.08;98568.98;210324;1294;140090;-67
2022/12/12 14:52:23;;;;;;;14.20;9.50;;;;;;;0.65;80.15;98570.98;210153;1292;150003;-67
2022/12/12 14:57:27;;;;;;;14.40;7.20;;;;;;;0.64;79.96;98572.08;210166;1295;140941;-64
2022/12/12 15:02:39;;;;;;;15.50;7.90;;;;;;;0.57;80.61;98580.27;210347;1298;138723;-63
2022/12/12 15:07:46;;;;;;;20.80;10.60;;;;;;;0.53;80.40;98588.56;210171;1301;140395;-70
2022/12/12 15:12:52;;;;;;;21.50;9.20;;;;;;;0.51;80.65;98588.69;209934;1298;142652;-64
2022/12/12 15:18:00;;;;;;;19.00;10.60;;;;;;;0.54;80.66;98592.00;210159;1303;222529;-66
2022/12/12 15:23:07;;;;;;;21.30;8.90;;;;;;;0.54;80.66;98595.96;210179;1295;140599;-70
2022/12/12 15:28:19;;;;;;;16.50;9.90;;;;;;;0.50;81.08;98594.77;210089;1295;140146;-68
2022/12/12 15:33:25;;;;;;;17.90;8.60;;;;;;;0.51;80.72;98596.19;210141;1295;141234;-66
2022/12/12 15:38:32;;;;;;;16.80;11.30;;;;;;;0.51;81.06;98593.20;210266;1296;139354;-65
2022/12/12 15:43:38;;;;;;;15.30;9.90;;;;;;;0.49;81.49;98596.86;210208;1303;234996;-68
2022/12/12 15:48:44;;;;;;;13.90;7.80;;;;;;;0.42;81.15;98606.44;210211;1295;140558;-66
2022/12/12 15:53:51;;;;;;;12.30;8.10;;;;;;;0.40;81.42;98612.04;210058;1301;140464;-69
2022/12/12 15:59:20;;;;;;;9.80;5.00;;;;;;;0.42;80.79;98613.09;209948;1295;245559;-64
2022/12/12 16:04:25;;;;;;;8.50;6.50;;;;;;;0.36;81.26;98611.09;210025;1297;139326;-64
2022/12/12 16:09:29;;;;;;;8.60;6.60;;;;;;;0.28;81.46;98613.10;210216;1293;139612;-67
2022/12/12 16:14:38;;;;;;;11.20;7.90;;;;;;;0.29;81.44;98617.39;210169;1287;140730;-65
2022/12/12 16:20:04;;;;;;;11.50;7.50;;;;;;;0.30;81.26;98621.46;210112;1298;140022;-70
2022/12/12 16:25:11;;;;;;;9.30;6.70;;;;;;;0.28;81.69;98627.17;210178;1288;138909;-65
2022/12/12 16:30:16;;;;;;;8.50;4.80;;;;;;;0.26;81.64;98626.84;210283;1301;139665;-67
2022/12/12 16:35:23;;;;;;;10.10;5.40;;;;;;;0.27;81.63;98633.70;210113;1295;139641;-65
2022/12/12 16:40:27;;;;;;;11.10;6.30;;;;;;;0.28;81.47;98639.31;210133;1294;139378;-64
2022/12/12 16:45:31;;;;;;;7.90;4.80;;;;;;;0.28;81.51;98642.83;210236;1291;139506;-65
2022/12/12 16:50:36;;;;;;;12.00;7.00;;;;;;;0.25;81.52;98649.70;210251;1295;139967;-66
2022/12/12 16:55:43;;;;;;;11.40;6.50;;;;;;;0.24;81.66;98650.34;207500;1289;139015;-67
2022/12/12 17:00:48;;;;;;;;;;;;;;;0.22;81.55;98658.11;208955;1291;140334;-67
2022/12/12 17:05:53;;;;;;;6.20;4.80;;;;;;;0.13;82.14;98662.38;211083;1294;125533;-67
2022/12/12 17:10:57;;;;;;;11.30;7.30;;;;;;;0.10;81.93;98668.08;210325;1296;139224;-68
2022/12/12 17:16:13;;;;;;;9.60;5.60;;;;;;;0.11;81.91;98672.52;210440;1286;140074;-63
2022/12/12 17:21:18;;;;;;;7.40;5.70;;;;;;;0.08;81.83;98679.15;210468;1295;139205;-65
2022/12/12 17:26:29;;;;;;;8.80;7.50;;;;;;;0.05;82.17;98681.92;210561;1291;140867;-67
2022/12/12 17:31:33;;;;;;;8.40;5.80;;;;;;;0.12;82.06;98683.36;207211;1286;139678;-64
2022/12/12 17:36:38;;;;;;;6.90;5.80;;;;;;;0.17;82.13;98681.50;210309;1296;138833;-69
2022/12/12 17:41:43;;;;;;;7.50;4.90;;;;;;;0.17;82.29;98687.80;210429;1295;139603;-70
2022/12/12 17:46:47;;;;;;;9.50;5.40;;;;;;;0.13;82.27;98697.85;210523;1292;138823;-67
2022/12/12 17:51:53;;;;;;;10.30;6.90;;;;;;;0.15;82.00;98697.98;210331;1291;139402;-66
2022/12/12 17:56:57;;;;;;;9.80;6.00;;;;;;;0.20;82.17;98699.50;210580;1288;140093;-66
2022/12/12 18:02:01;;;;;;;10.40;6.20;;;;;;;0.19;82.13;98700.63;210555;1295;139434;-68
2022/12/12 18:07:06;;;;;;;9.00;5.40;;;;;;;0.15;82.15;98704.95;210453;1299;139311;-69
2022/12/12 18:12:10;;;;;;;11.40;6.80;;;;;;;0.12;81.97;98707.08;210332;1302;140678;-69
2022/12/12 18:17:15;;;;;;;10.80;7.90;;;;;;;0.10;82.11;98711.82;209274;1286;203927;-65
2022/12/12 18:22:20;;;;;;;21.90;10.50;;;;;;;0.08;81.96;98716.03;210164;1292;139068;-67
2022/12/12 18:27:24;;;;;;;12.20;7.70;;;;;;;0.08;81.97;98718.81;210399;1295;139620;-69
2022/12/12 18:32:28;;;;;;;11.10;7.40;;;;;;;0.10;82.23;98722.70;210580;1291;140209;-69
2022/12/12 18:37:33;;;;;;;14.40;8.20;;;;;;;0.08;82.05;98731.84;210068;1290;138696;-66
2022/12/12 18:42:38;;;;;;;12.60;7.00;;;;;;;0.06;82.17;98740.13;210048;1291;140503;-65
2022/12/12 18:47:43;;;;;;;11.20;7.90;;;;;;;0.08;82.09;98743.80;210447;1295;139047;-69
2022/12/12 18:52:48;;;;;;;11.40;7.60;;;;;;;0.10;82.11;98749.30;210377;1298;140390;-67
2022/12/12 18:57:52;;;;;;;13.00;7.80;;;;;;;0.06;82.06;98757.29;207890;1287;138841;-66
2022/12/12 19:02:57;;;;;;;11.50;7.60;;;;;;;0.05;82.29;98762.61;208802;1294;205961;-66
2022/12/12 19:08:02;;;;;;;9.50;7.10;;;;;;;0.09;81.82;98772.44;210023;1291;139734;-67
2022/12/12 19:13:05;;;;;;;11.00;7.40;;;;;;;0.04;82.30;98777.80;208801;1279;139537;-67
2022/12/12 19:18:09;;;;;;;11.40;6.20;;;;;;;-0.04;82.11;98780.34;207885;1292;140164;-67
2022/12/12 19:23:13;;;;;;;10.40;8.40;;;;;;;-0.04;82.55;98783.16;208015;1285;140075;-64
2022/12/12 19:28:17;;;;;;;13.50;8.50;;;;;;;-0.06;82.57;98787.42;208558;1292;139407;-69
2022/12/12 19:33:21;;;;;;;14.90;8.30;;;;;;;-0.09;82.53;98786.06;210674;1301;139766;-66
2022/12/12 19:38:26;;;;;;;16.00;8.90;;;;;;;-0.05;82.36;98797.74;207155;1286;140248;-63
2022/12/12 19:43:31;;;;;;;14.60;9.40;;;;;;;-0.06;82.66;98808.21;207165;1284;138956;-64
2022/12/12 19:48:35;;;;;;;8.20;5.10;;;;;;;-0.09;82.46;98813.83;210364;1289;139111;-69
2022/12/12 19:53:49;;;;;;;14.50;10.50;;;;;;;-0.14;82.67;98815.28;210304;1301;138837;-68
2022/12/12 19:58:54;;;;;;;16.20;10.70;;;;;;;-0.08;82.64;98823.71;210304;1284;139927;-66
2022/12/12 20:04:04;;;;;;;13.20;9.80;;;;;;;-0.08;82.57;98827.06;210841;1277;140654;-66
2022/12/12 20:09:10;;;;;;;13.60;10.00;;;;;;;-0.14;82.92;98830.98;210614;1293;140356;-64
2022/12/12 20:14:18;;;;;;;17.60;11.00;;;;;;;-0.15;82.36;98835.17;210518;1292;139873;-64
2022/12/12 20:19:23;;;;;;;17.40;11.70;;;;;;;-0.18;82.52;98835.02;210651;1293;140230;-63
2022/12/12 20:24:27;;;;;;;11.70;10.50;;;;;;;-0.21;82.58;98838.25;210523;1287;139603;-63
2022/12/12 20:29:32;;;;;;;14.70;11.90;;;;;;;-0.25;82.48;98840.59;210416;1295;141050;-66
2022/12/12 20:34:37;;;;;;;16.20;11.00;;;;;;;-0.24;82.50;98849.54;210266;1296;141009;-68
2022/12/12 20:39:41;;;;;;;15.80;10.00;;;;;;;-0.21;82.70;98855.33;210409;1295;140867;-65
2022/12/12 20:44:45;;;;;;;14.60;11.20;;;;;;;-0.25;82.20;98862.42;210593;1292;141190;-64
2022/12/12 20:49:49;;;;;;;24.20;12.00;;;;;;;-0.33;81.96;98869.16;210663;1294;141419;-70
2022/12/12 20:54:53;;;;;;;15.50;9.90;;;;;;;-0.36;82.35;98867.70;210437;1292;139888;-71
2022/12/12 20:59:57;;;;;;;16.90;14.40;;;;;;;-0.37;82.39;98875.38;210558;1292;140214;-69
2022/12/12 21:05:04;;;;;;;19.30;15.00;;;;;;;-0.32;82.69;98882.39;210397;1295;140021;-71
2022/12/12 21:10:08;;;;;;;15.70;10.30;;;;;;;-0.29;82.55;98886.11;210620;1293;140296;-69
2022/12/12 21:15:12;;;;;;;14.50;10.00;;;;;;;-0.27;82.20;98891.61;210420;1295;141183;-68
2022/12/12 21:20:17;;;;;;;16.20;10.20;;;;;;;-0.30;82.24;98894.30;210598;1292;141541;-68
2022/12/12 21:25:23;;;;;;;11.80;8.80;;;;;;;-0.37;82.08;98898.98;210597;1292;139941;-69
2022/12/12 21:30:27;;;;;;;13.00;9.30;;;;;;;-0.39;81.87;98904.11;210433;1294;141078;-69
2022/12/12 21:35:34;;;;;;;16.10;10.10;;;;;;;-0.40;81.51;98906.52;210558;1295;140203;-68
2022/12/12 21:40:38;;;;;;;14.30;10.20;;;;;;;-0.45;81.88;98910.12;210588;1292;140031;-67
2022/12/12 21:45:44;;;;;;;15.30;8.90;;;;;;;-0.51;82.03;98914.05;210453;1288;142316;-65
2022/12/12 21:50:49;;;;;;;13.80;9.10;;;;;;;-0.52;81.86;98918.64;207920;1286;139338;-65
2022/12/12 21:56:01;;;;;;;14.60;10.00;;;;;;;-0.54;81.63;98922.20;207656;1286;139389;-70
2022/12/12 22:01:11;;;;;;;14.50;10.40;;;;;;;-0.59;81.90;98922.79;210728;1285;139875;-67
2022/12/12 22:06:19;;;;;;;14.00;9.00;;;;;;;-0.66;81.78;98925.27;210649;1292;140511;-65
2022/12/12 22:11:23;;;;;;;15.00;10.10;;;;;;;-0.63;81.66;98929.21;210514;1292;139755;-69
2022/12/12 22:16:48;;;;;;;13.50;9.90;;;;;;;-0.66;81.57;98934.44;210780;1291;141028;-69
2022/12/12 22:21:52;;;;;;;17.20;10.10;;;;;;;-0.69;81.80;98938.20;210597;1292;138878;-72
2022/12/12 22:26:56;;;;;;;15.00;10.00;;;;;;;-0.68;81.84;98944.45;210616;1294;141108;-67
2022/12/12 22:32:00;;;;;;;13.80;8.80;;;;;;;-0.64;81.68;98948.23;210437;1292;141240;-65
2022/12/12 22:37:04;;;;;;;19.70;11.70;;;;;;;-0.64;81.64;98952.67;210621;1279;140852;-71
2022/12/12 22:42:08;;;;;;;19.10;10.90;;;;;;;-0.68;81.69;98960.52;210652;1292;140224;-67
2022/12/12 22:47:12;;;;;;;18.40;15.70;;;;;;;-0.65;81.52;98961.68;210709;1293;162012;-64
2022/12/12 22:52:17;;;;;;;12.10;7.80;;;;;;;-0.61;81.39;98968.61;210559;1292;141167;-71
2022/12/12 22:57:21;;;;;;;18.60;11.50;;;;;;;-0.69;81.34;98978.41;210428;1292;140085;-69
2022/12/12 23:02:24;;;;;;;17.60;11.50;;;;;;;-0.69;81.47;98983.97;210571;1300;140964;-70
2022/12/12 23:07:28;;;;;;;16.60;8.90;;;;;;;-0.64;81.68;98991.21;210765;1287;142210;-70
2022/12/12 23:12:32;;;;;;;12.20;7.80;;;;;;;-0.67;81.49;98991.08;210728;1287;142206;-67
2022/12/12 23:17:36;;;;;;;11.90;8.30;;;;;;;-0.69;81.47;98986.98;210557;1300;140386;-64
2022/12/12 23:22:42;;;;;;;19.00;12.60;;;;;;;-0.67;81.52;98985.81;209429;1286;142427;-68
2022/12/12 23:27:46;;;;;;;12.10;8.30;;;;;;;-0.68;81.70;98985.11;207352;1292;140083;-69
2022/12/12 23:32:49;;;;;;;13.10;10.40;;;;;;;-0.72;81.37;98987.14;209349;1285;140131;-66
2022/12/12 23:37:53;;;;;;;12.70;8.90;;;;;;;-0.70;81.45;98988.59;210100;1292;140709;-66
2022/12/12 23:42:57;;;;;;;10.70;6.80;;;;;;;-0.77;81.48;98992.19;209464;1292;141267;-63
2022/12/12 23:48:01;;;;;;;11.80;6.70;;;;;;;-0.88;81.33;98996.00;209706;1292;141001;-67